Time;durP1;ratioP1;P1;durP2;ratioP2;P2;SDS_P1;SDS_P2;PMS_P1;PMS_P2;Temp;Humidity;BMP_temperature;BMP_pressure;BME280_temperature;BME280_humidity;BME280_pressure;Samples;Min_cycle;Max_cycle;Signal;HPM_P1;HPM_P2
2022/04/15 00:00:24;;;;;;;10.13;8.38;;;13.50;59.00;;;;;;5047372;28;20072;-51
2022/04/15 00:02:51;;;;;;;7.97;7.18;;;13.50;59.20;;;;;;5068351;28;20123;-52
2022/04/15 00:05:36;;;;;;;8.80;7.80;;;13.50;59.10;;;;;;5059309;28;20045;-58
2022/04/15 00:08:12;;;;;;;9.40;8.27;;;13.40;59.10;;;;;;5067604;28;20086;-51
2022/04/15 00:10:45;;;;;;;9.02;7.60;;;13.40;59.40;;;;;;5057176;28;20075;-49
2022/04/15 00:13:19;;;;;;;8.30;7.03;;;13.40;59.30;;;;;;5066370;28;20045;-49
2022/04/15 00:15:48;;;;;;;;;;;13.40;59.30;;;;;;5057389;28;20384;-52
2022/04/15 00:18:19;;;;;;;8.65;7.25;;;13.40;59.30;;;;;;5067718;28;20403;-49
2022/04/15 00:20:45;;;;;;;7.88;7.07;;;13.30;58.60;;;;;;5065594;28;20048;-52
2022/04/15 00:23:14;;;;;;;10.00;7.13;;;13.30;58.80;;;;;;5060420;28;20040;-53
2022/04/15 00:25:41;;;;;;;8.93;7.47;;;13.20;58.80;;;;;;5068988;28;20080;-50
2022/04/15 00:28:10;;;;;;;7.93;6.60;;;13.20;59.00;;;;;;5067668;28;20036;-50
2022/04/15 00:30:39;;;;;;;8.10;7.18;;;13.20;59.20;;;;;;5066590;28;20043;-49
2022/04/15 00:33:06;;;;;;;8.75;6.78;;;13.10;59.10;;;;;;5061400;28;20535;-54
2022/04/15 00:35:33;;;;;;;7.53;6.57;;;13.00;59.10;;;;;;5050498;28;20053;-53
2022/04/15 00:38:02;;;;;;;7.53;6.13;;;13.00;59.10;;;;;;5065227;28;20041;-52
2022/04/15 00:40:29;;;;;;;8.52;6.25;;;13.00;59.30;;;;;;5069745;28;20455;-51
2022/04/15 00:42:56;;;;;;;6.15;5.55;;;13.00;59.20;;;;;;5061704;28;20036;-51
2022/04/15 00:45:23;;;;;;;8.05;6.65;;;12.90;59.20;;;;;;5072469;28;20458;-52
2022/04/15 00:47:53;;;;;;;7.00;6.18;;;12.90;59.20;;;;;;5068605;28;20163;-52
2022/04/15 00:50:29;;;;;;;9.70;6.80;;;12.80;59.20;;;;;;5071119;28;20046;-50
2022/04/15 00:52:58;;;;;;;6.05;5.35;;;12.80;59.30;;;;;;5067882;28;20044;-51
2022/04/15 00:55:26;;;;;;;8.13;6.40;;;12.80;59.30;;;;;;5072315;28;20612;-52
2022/04/15 00:57:56;;;;;;;6.88;6.15;;;12.70;59.30;;;;;;5067688;28;20496;-49
2022/04/15 01:00:25;;;;;;;7.93;6.97;;;12.70;59.40;;;;;;5071491;28;20048;-49
2022/04/15 01:02:53;;;;;;;6.75;6.03;;;12.60;59.40;;;;;;5067306;28;20097;-51
2022/04/15 01:05:20;;;;;;;7.13;6.10;;;12.60;59.50;;;;;;5066745;28;20037;-51
2022/04/15 01:07:52;;;;;;;7.10;6.35;;;12.60;59.40;;;;;;5061318;28;20065;-51
2022/04/15 01:10:25;;;;;;;7.00;5.82;;;12.60;59.50;;;;;;5053186;28;20039;-52
2022/04/15 01:12:57;;;;;;;6.75;6.15;;;12.50;59.60;;;;;;5058940;28;20037;-49
2022/04/15 01:15:45;;;;;;;6.97;6.15;;;12.50;59.50;;;;;;5058681;28;20041;-52
2022/04/15 01:18:19;;;;;;;8.27;6.57;;;12.50;59.40;;;;;;5055161;28;20413;-52
2022/04/15 01:20:53;;;;;;;8.52;6.05;;;12.40;59.40;;;;;;5065074;28;20037;-51
2022/04/15 01:23:25;;;;;;;7.55;5.80;;;12.40;59.70;;;;;;5070753;28;20064;-52
2022/04/15 01:25:53;;;;;;;7.30;6.47;;;12.40;59.50;;;;;;5068627;28;20063;-48
2022/04/15 01:28:24;;;;;;;7.32;6.15;;;12.30;59.50;;;;;;5064732;28;20562;-52
2022/04/15 01:31:07;;;;;;;7.53;5.85;;;12.30;59.80;;;;;;5073366;28;20037;-52
2022/04/15 01:33:39;;;;;;;6.55;5.70;;;12.20;60.10;;;;;;5068576;28;20040;-52
2022/04/15 01:36:12;;;;;;;7.88;6.50;;;12.20;59.70;;;;;;5065767;28;20463;-51
2022/04/15 01:38:39;;;;;;;7.55;6.50;;;12.20;59.70;;;;;;5059604;28;20072;-52
2022/04/15 01:41:13;;;;;;;7.53;6.43;;;12.10;59.60;;;;;;5073264;28;20051;-49
2022/04/15 01:43:49;;;;;;;6.72;5.75;;;12.10;59.60;;;;;;5071361;28;20488;-52
2022/04/15 01:46:17;;;;;;;8.32;5.95;;;12.10;59.80;;;;;;5066857;28;20048;-50
2022/04/15 01:48:47;;;;;;;9.10;6.35;;;12.00;59.70;;;;;;5063715;28;20381;-50
2022/04/15 01:51:24;;;;;;;7.75;6.05;;;12.10;59.80;;;;;;5072731;28;20040;-52
2022/04/15 01:53:53;;;;;;;6.35;5.40;;;12.00;59.80;;;;;;5062333;28;20037;-53
2022/04/15 01:56:22;;;;;;;5.88;5.07;;;11.90;59.80;;;;;;5069322;28;20072;-48
2022/04/15 01:58:49;;;;;;;6.82;6.05;;;11.90;59.80;;;;;;5065733;28;20109;-50
2022/04/15 02:01:19;;;;;;;6.22;5.63;;;11.90;59.80;;;;;;5070049;28;20056;-51
2022/04/15 02:03:48;;;;;;;8.38;5.75;;;11.80;59.80;;;;;;5068700;28;20055;-48
2022/04/15 02:06:15;;;;;;;7.28;6.20;;;11.80;59.70;;;;;;5062398;28;20110;-50
2022/04/15 02:08:44;;;;;;;7.68;5.90;;;11.80;59.90;;;;;;5071756;28;20508;-52
2022/04/15 02:11:15;;;;;;;7.00;5.45;;;11.70;60.10;;;;;;5068122;28;20408;-53
2022/04/15 02:13:46;;;;;;;8.35;6.65;;;11.70;60.00;;;;;;5064244;28;20064;-50
2022/04/15 02:16:17;;;;;;;7.95;6.78;;;11.70;60.10;;;;;;5056358;28;20099;-48
2022/04/15 02:18:44;;;;;;;6.78;6.05;;;11.60;60.00;;;;;;5070919;28;20090;-53
2022/04/15 02:21:11;;;;;;;6.63;5.93;;;11.60;60.20;;;;;;5064884;28;20040;-49
2022/04/15 02:23:43;;;;;;;5.80;5.15;;;11.60;60.20;;;;;;5060763;28;20056;-53
2022/04/15 02:26:10;;;;;;;5.90;5.30;;;11.50;60.10;;;;;;5067518;28;20075;-52
2022/04/15 02:28:38;;;;;;;6.00;5.40;;;11.50;60.10;;;;;;5059790;28;20041;-50
2022/04/15 02:31:07;;;;;;;6.15;5.55;;;11.50;60.20;;;;;;5052661;28;20044;-52
2022/04/15 02:33:34;;;;;;;5.97;5.38;;;11.50;60.30;;;;;;5066689;28;20040;-52
2022/04/15 02:36:01;;;;;;;8.68;6.20;;;11.50;60.30;;;;;;5061660;28;20401;-51
2022/04/15 02:38:31;;;;;;;7.38;5.43;;;11.40;60.20;;;;;;5064469;28;20060;-54
2022/04/15 02:41:01;;;;;;;5.82;4.90;;;11.40;60.20;;;;;;5052365;28;20412;-52
2022/04/15 02:43:35;;;;;;;7.32;5.85;;;11.40;60.20;;;;;;5066582;28;20438;-50
2022/04/15 02:46:07;;;;;;;6.22;5.63;;;11.30;60.40;;;;;;5061865;28;20033;-52
2022/04/15 02:48:40;;;;;;;6.78;5.45;;;11.30;60.60;;;;;;5071675;28;20076;-52
2022/04/15 02:51:15;;;;;;;6.47;5.47;;;11.30;60.40;;;;;;5066200;28;20079;-52
2022/04/15 02:53:45;;;;;;;6.72;6.05;;;11.30;60.40;;;;;;5062819;28;20037;-51
2022/04/15 02:56:19;;;;;;;7.50;5.10;;;11.20;60.40;;;;;;5070128;28;20045;-52
2022/04/15 02:58:48;;;;;;;5.82;5.32;;;11.20;60.40;;;;;;5067366;28;20071;-49
2022/04/15 03:01:15;;;;;;;6.50;5.80;;;11.20;60.50;;;;;;5069145;28;20049;-52
2022/04/15 03:03:43;;;;;;;6.07;4.57;;;11.10;60.40;;;;;;5063983;28;20041;-52
2022/04/15 03:06:10;;;;;;;7.53;5.38;;;11.10;60.50;;;;;;5066703;28;20040;-51
2022/04/15 03:08:37;;;;;;;6.22;5.63;;;11.10;60.50;;;;;;5052412;28;20094;-52
2022/04/15 03:11:07;;;;;;;5.90;5.30;;;11.10;60.60;;;;;;5061311;28;20461;-51
2022/04/15 03:13:35;;;;;;;6.13;4.50;;;11.10;60.50;;;;;;5058482;28;20036;-52
2022/04/15 03:16:05;;;;;;;6.28;5.20;;;11.00;60.50;;;;;;5060039;28;20477;-52
2022/04/15 03:18:37;;;;;;;6.10;5.10;;;11.00;60.50;;;;;;5043866;28;20095;-49
2022/04/15 03:21:05;;;;;;;5.82;5.18;;;11.00;60.40;;;;;;5062519;28;20103;-50
2022/04/15 03:23:34;;;;;;;7.07;5.22;;;11.00;60.50;;;;;;5060184;28;20436;-48
2022/04/15 03:26:01;;;;;;;4.75;4.22;;;10.90;60.60;;;;;;5059396;28;20040;-52
2022/04/15 03:28:30;;;;;;;4.85;4.35;;;10.90;60.60;;;;;;5060108;28;20562;-53
2022/04/15 03:30:59;;;;;;;5.63;5.13;;;10.90;60.60;;;;;;5061556;28;20037;-49
2022/04/15 03:33:28;;;;;;;5.70;4.82;;;10.90;60.60;;;;;;5059966;28;20049;-50
2022/04/15 03:35:57;;;;;;;4.68;4.25;;;10.90;60.70;;;;;;5056675;28;20037;-49
2022/04/15 03:38:24;;;;;;;5.15;4.65;;;10.80;60.70;;;;;;5064255;28;20041;-50
2022/04/15 03:40:52;;;;;;;5.85;4.70;;;10.80;60.70;;;;;;5058512;28;20041;-50
2022/04/15 03:43:18;;;;;;;5.95;5.28;;;10.80;60.80;;;;;;5058847;28;20056;-51
2022/04/15 03:45:49;;;;;;;5.53;4.45;;;10.80;60.80;;;;;;5059580;28;20052;-53
2022/04/15 03:48:16;;;;;;;6.10;4.53;;;10.70;60.80;;;;;;5060675;28;20851;-49
2022/04/15 03:50:47;;;;;;;5.85;5.07;;;10.70;60.80;;;;;;5057564;28;20040;-47
2022/04/15 03:53:16;;;;;;;5.78;4.65;;;10.70;60.80;;;;;;5058514;28;20500;-50
2022/04/15 03:55:46;;;;;;;6.25;5.13;;;10.70;61.00;;;;;;5059796;28;20040;-52
2022/04/15 03:58:15;;;;;;;5.57;5.05;;;10.70;60.80;;;;;;5055403;28;20124;-50
2022/04/15 04:00:44;;;;;;;6.60;5.18;;;10.60;60.90;;;;;;5042424;28;20041;-47
2022/04/15 04:03:12;;;;;;;8.50;5.50;;;10.60;60.90;;;;;;5059326;28;20041;-48
2022/04/15 04:05:39;;;;;;;7.60;5.85;;;10.60;61.10;;;;;;5038974;28;20041;-49
2022/04/15 04:08:06;;;;;;;7.00;5.70;;;10.60;61.80;;;;;;5059698;28;20049;-51
2022/04/15 04:10:36;;;;;;;6.95;5.43;;;10.50;61.10;;;;;;5041608;28;20090;-49
2022/04/15 04:13:03;;;;;;;7.90;6.03;;;10.60;61.20;;;;;;5056740;28;20078;-48
2022/04/15 04:15:32;;;;;;;9.00;6.72;;;10.60;61.20;;;;;;5057996;28;20130;-48
2022/04/15 04:18:02;;;;;;;7.80;6.38;;;10.50;61.30;;;;;;5061558;28;20032;-48
2022/04/15 04:20:32;;;;;;;9.00;6.20;;;10.50;61.50;;;;;;5065691;28;20040;-51
2022/04/15 04:23:01;;;;;;;9.80;6.43;;;10.50;61.70;;;;;;5068135;28;20040;-50
2022/04/15 04:25:28;;;;;;;6.97;6.00;;;10.50;61.80;;;;;;5058328;28;20041;-50
2022/04/15 04:27:57;;;;;;;10.10;6.93;;;10.50;61.80;;;;;;5058664;28;20057;-50
2022/04/15 04:30:24;;;;;;;7.63;5.95;;;10.50;61.80;;;;;;5049526;28;20497;-51
2022/04/15 04:32:58;;;;;;;6.70;6.03;;;10.50;61.70;;;;;;5062027;28;20041;-50
2022/04/15 04:35:25;;;;;;;7.15;5.18;;;10.50;61.70;;;;;;5066933;28;20044;-50
2022/04/15 04:37:54;;;;;;;7.32;5.80;;;10.50;61.80;;;;;;5064340;28;20466;-48
2022/04/15 04:40:26;;;;;;;7.18;5.68;;;10.40;61.70;;;;;;5062945;28;20509;-52
2022/04/15 04:42:54;;;;;;;6.50;5.75;;;10.40;61.70;;;;;;5067225;28;20037;-51
2022/04/15 04:45:26;;;;;;;7.78;5.50;;;10.40;61.70;;;;;;5064428;28;20076;-52
2022/04/15 04:47:55;;;;;;;5.20;4.28;;;10.50;62.00;;;;;;5059162;28;20404;-48
2022/04/15 04:50:24;;;;;;;5.35;4.72;;;10.40;61.80;;;;;;5063814;28;20043;-48
2022/04/15 04:52:53;;;;;;;5.35;4.78;;;10.40;61.80;;;;;;5059801;28;20047;-49
2022/04/15 04:55:25;;;;;;;6.93;5.72;;;10.40;61.90;;;;;;5059059;28;20048;-51
2022/04/15 04:57:51;;;;;;;7.13;5.05;;;10.40;62.10;;;;;;5059544;28;20036;-50
2022/04/15 05:00:18;;;;;;;6.47;5.68;;;10.40;62.00;;;;;;5060966;28;20408;-49
2022/04/15 05:02:45;;;;;;;6.35;5.22;;;10.40;62.10;;;;;;5064510;28;20085;-48
2022/04/15 05:05:14;;;;;;;5.90;5.15;;;10.40;62.10;;;;;;5055762;28;20463;-52
2022/04/15 05:07:44;;;;;;;7.30;5.72;;;10.40;62.30;;;;;;5056798;28;20037;-49
2022/04/15 05:10:15;;;;;;;6.07;5.47;;;10.40;62.50;;;;;;5042056;28;20045;-50
2022/04/15 05:12:48;;;;;;;7.43;5.90;;;10.40;62.40;;;;;;5063226;28;20043;-49
2022/04/15 05:15:15;;;;;;;7.72;6.45;;;10.40;62.50;;;;;;5062911;28;20489;-52
2022/04/15 05:17:41;;;;;;;6.80;6.10;;;10.40;62.80;;;;;;5067548;28;20055;-50
2022/04/15 05:20:08;;;;;;;9.05;6.40;;;10.40;63.10;;;;;;5063573;28;20044;-48
2022/04/15 05:22:40;;;;;;;6.80;6.10;;;10.40;63.40;;;;;;5060549;28;20087;-49
2022/04/15 05:25:11;;;;;;;6.90;5.78;;;10.50;63.60;;;;;;5065412;28;20052;-51
2022/04/15 05:27:38;;;;;;;6.93;5.57;;;10.50;63.80;;;;;;5069558;28;20041;-49
2022/04/15 05:30:08;;;;;;;6.60;5.90;;;10.60;64.10;;;;;;5062707;28;20591;-53
2022/04/15 05:32:42;;;;;;;12.32;9.32;;;10.60;64.50;;;;;;5069395;28;20032;-48
2022/04/15 05:35:12;;;;;;;16.63;11.07;;;10.70;65.70;;;;;;5072392;28;20526;-54
2022/04/15 05:37:40;;;;;;;19.17;12.23;;;10.80;66.50;;;;;;5064070;28;20052;-48
2022/04/15 05:40:10;;;;;;;21.45;14.02;;;10.90;66.80;;;;;;5043988;28;20622;-54
2022/04/15 05:42:36;;;;;;;21.40;13.73;;;11.00;68.10;;;;;;5070860;28;20049;-50
2022/04/15 05:45:05;;;;;;;25.00;15.10;;;11.20;68.00;;;;;;5065355;28;20143;-52
2022/04/15 05:47:32;;;;;;;30.15;17.55;;;11.30;68.30;;;;;;5063924;28;20052;-49
2022/04/15 05:49:59;;;;;;;26.20;15.48;;;11.40;68.70;;;;;;5061541;28;20035;-50
2022/04/15 05:52:28;;;;;;;35.65;15.98;;;11.50;68.50;;;;;;5068348;28;20037;-48
2022/04/15 05:55:00;;;;;;;24.98;14.82;;;11.70;68.70;;;;;;5054655;28;20041;-49
2022/04/15 05:57:28;;;;;;;44.50;16.10;;;11.80;68.70;;;;;;5050528;28;20045;-50
2022/04/15 05:59:55;;;;;;;37.05;15.90;;;11.80;68.50;;;;;;5069970;28;20127;-50
2022/04/15 06:02:22;;;;;;;31.65;15.10;;;11.90;68.40;;;;;;5060112;28;20048;-54
2022/04/15 06:04:49;;;;;;;30.63;14.00;;;12.00;68.40;;;;;;5046807;28;20195;-52
2022/04/15 06:07:17;;;;;;;26.05;12.93;;;12.10;68.30;;;;;;5057737;28;20368;-50
2022/04/15 06:09:44;;;;;;;24.55;14.02;;;12.10;68.30;;;;;;5050273;28;20486;-54
2022/04/15 06:12:10;;;;;;;31.42;14.60;;;12.20;68.30;;;;;;5054534;28;20041;-53
2022/04/15 06:14:37;;;;;;;25.65;14.25;;;12.20;68.40;;;;;;5058424;28;20075;-53
2022/04/15 06:17:04;;;;;;;45.33;15.45;;;12.30;68.30;;;;;;5060879;28;20562;-54
2022/04/15 06:19:31;;;;;;;39.58;14.63;;;12.40;68.20;;;;;;5061944;28;20055;-54
2022/04/15 06:22:07;;;;;;;36.92;13.43;;;12.50;68.00;;;;;;5069749;28;20060;-53
2022/04/15 06:24:34;;;;;;;43.60;14.52;;;12.40;67.80;;;;;;5066954;28;20451;-50
2022/04/15 06:27:00;;;;;;;24.17;14.95;;;12.50;67.40;;;;;;5051234;28;20080;-50
2022/04/15 06:29:28;;;;;;;35.30;14.25;;;12.50;67.40;;;;;;5061814;22;20051;-49
2022/04/15 06:32:02;;;;;;;37.15;14.52;;;12.50;67.60;;;;;;5070438;28;20433;-52
2022/04/15 06:34:29;;;;;;;54.45;16.40;;;12.50;67.60;;;;;;5055860;28;20569;-49
2022/04/15 06:36:56;;;;;;;34.70;14.15;;;12.40;67.50;;;;;;5002902;28;20041;-50
2022/04/15 06:39:23;;;;;;;33.13;13.63;;;12.40;67.60;;;;;;5048725;28;20052;-49
2022/04/15 06:41:49;;;;;;;16.73;11.30;;;12.40;67.60;;;;;;5049814;28;20102;-52
2022/04/15 06:44:20;;;;;;;27.52;12.77;;;12.30;67.80;;;;;;5040708;28;20054;-54
2022/04/15 06:46:46;;;;;;;37.72;13.10;;;12.30;67.80;;;;;;5029727;28;20134;-53
2022/04/15 06:49:13;;;;;;;21.35;11.43;;;12.30;67.90;;;;;;5046057;28;20057;-53
2022/04/15 06:51:40;;;;;;;17.08;10.70;;;12.30;68.10;;;;;;5048216;28;20143;-54
2022/04/15 06:54:07;;;;;;;18.40;10.75;;;12.30;68.10;;;;;;5065058;28;20421;-53
2022/04/15 06:56:33;;;;;;;23.35;11.48;;;12.30;68.20;;;;;;5054071;28;20090;-50
2022/04/15 06:59:00;;;;;;;17.75;11.60;;;12.30;68.50;;;;;;5067654;28;20094;-53
2022/04/15 07:01:29;;;;;;;18.15;10.52;;;12.40;68.40;;;;;;5036572;28;20045;-52
2022/04/15 07:03:56;;;;;;;20.83;9.73;;;12.40;68.20;;;;;;5068164;28;20143;-51
2022/04/15 07:06:23;;;;;;;17.17;9.93;;;12.30;67.90;;;;;;5050142;28;20104;-53
2022/04/15 07:08:50;;;;;;;12.38;8.88;;;12.30;67.90;;;;;;5066399;28;20037;-49
2022/04/15 07:11:16;;;;;;;18.75;9.27;;;12.30;68.20;;;;;;5053015;28;20037;-50
2022/04/15 07:13:43;;;;;;;12.48;8.70;;;12.30;68.20;;;;;;5063653;28;20484;-51
2022/04/15 07:16:10;;;;;;;22.92;9.60;;;12.40;68.20;;;;;;5053029;28;20094;-50
2022/04/15 07:18:37;;;;;;;17.85;8.55;;;12.30;68.20;;;;;;5066531;28;20052;-50
2022/04/15 07:21:05;;;;;;;15.27;8.02;;;12.30;68.20;;;;;;5050019;28;20076;-51
2022/04/15 07:23:32;;;;;;;13.48;9.52;;;12.30;68.50;;;;;;5065994;28;20040;-53
2022/04/15 07:25:59;;;;;;;20.60;9.60;;;12.30;68.50;;;;;;5050033;28;20120;-50
2022/04/15 07:28:25;;;;;;;20.92;8.18;;;12.30;68.40;;;;;;5059174;28;20106;-50
2022/04/15 07:30:52;;;;;;;10.85;7.95;;;12.30;68.40;;;;;;5052619;28;20039;-49
2022/04/15 07:33:19;;;;;;;17.77;8.38;;;12.40;68.50;;;;;;5067179;28;20591;-53
2022/04/15 07:35:48;;;;;;;10.20;8.38;;;12.40;68.30;;;;;;5052979;28;20041;-51
2022/04/15 07:38:15;;;;;;;10.02;7.65;;;12.40;68.40;;;;;;5052803;28;20053;-49
2022/04/15 07:40:42;;;;;;;12.50;8.55;;;12.40;68.20;;;;;;5051995;28;20045;-51
2022/04/15 07:43:09;;;;;;;11.93;8.63;;;12.30;67.90;;;;;;5063783;28;20048;-52
2022/04/15 07:45:36;;;;;;;12.68;8.75;;;12.30;67.90;;;;;;5053250;28;20547;-51
2022/04/15 07:48:02;;;;;;;9.70;8.45;;;12.40;68.00;;;;;;5058859;28;20048;-52
2022/04/15 07:50:31;;;;;;;11.88;8.30;;;12.30;67.80;;;;;;5053331;28;20060;-49
2022/04/15 07:52:59;;;;;;;9.50;7.65;;;12.30;67.70;;;;;;5055792;28;20066;-48
2022/04/15 07:55:27;;;;;;;9.73;8.05;;;12.40;68.20;;;;;;5045299;28;20423;-50
2022/04/15 07:57:54;;;;;;;8.20;7.38;;;12.40;68.20;;;;;;5059453;28;20071;-53
2022/04/15 08:00:21;;;;;;;8.50;7.57;;;12.50;68.20;;;;;;5056640;28;20883;-50
2022/04/15 08:02:49;;;;;;;9.75;7.40;;;12.60;67.90;;;;;;5068900;28;20041;-54
2022/04/15 08:05:15;;;;;;;9.40;7.68;;;12.70;67.60;;;;;;5054081;28;20077;-51
2022/04/15 08:07:42;;;;;;;12.70;8.60;;;12.80;67.40;;;;;;5061492;28;20105;-49
2022/04/15 08:10:09;;;;;;;8.52;7.57;;;12.90;67.20;;;;;;5054241;28;20148;-51
2022/04/15 08:12:39;;;;;;;8.45;7.22;;;13.00;66.80;;;;;;5061697;28;20408;-51
2022/04/15 08:15:06;;;;;;;9.65;7.38;;;13.10;66.60;;;;;;5061534;28;20379;-50
2022/04/15 08:17:33;;;;;;;9.35;7.68;;;13.20;66.70;;;;;;5060648;28;20082;-49
2022/04/15 08:20:00;;;;;;;9.80;7.70;;;13.30;66.40;;;;;;5062383;28;20044;-53
2022/04/15 08:22:27;;;;;;;9.20;8.15;;;13.40;66.30;;;;;;5059216;28;20504;-53
2022/04/15 08:24:54;;;;;;;9.25;7.75;;;13.50;66.00;;;;;;5065539;28;20124;-52
2022/04/15 08:27:21;;;;;;;8.70;7.25;;;13.60;65.90;;;;;;5051349;28;20803;-51
2022/04/15 08:29:49;;;;;;;7.68;6.50;;;13.70;65.40;;;;;;5060344;28;20035;-52
2022/04/15 08:32:16;;;;;;;9.20;6.50;;;13.80;65.10;;;;;;5056031;28;20072;-50
2022/04/15 08:34:43;;;;;;;7.45;6.65;;;14.00;64.50;;;;;;5051823;28;20097;-53
2022/04/15 08:37:10;;;;;;;9.45;7.45;;;14.10;64.40;;;;;;5051863;28;20072;-52
2022/04/15 08:39:37;;;;;;;8.50;7.18;;;14.20;64.00;;;;;;5062400;28;20047;-50
2022/04/15 08:42:07;;;;;;;7.88;7.07;;;14.30;63.50;;;;;;5045930;28;20056;-49
2022/04/15 08:44:34;;;;;;;8.77;7.55;;;14.40;63.10;;;;;;5061004;28;20049;-53
2022/04/15 08:47:02;;;;;;;10.20;8.05;;;14.50;62.90;;;;;;5052049;28;20087;-50
2022/04/15 08:49:29;;;;;;;7.18;6.10;;;14.60;62.50;;;;;;5061646;28;20032;-53
2022/04/15 08:51:57;;;;;;;9.70;6.47;;;14.70;62.40;;;;;;5052813;28;20052;-49
2022/04/15 08:54:25;;;;;;;8.63;6.28;;;14.80;61.80;;;;;;5063634;28;20068;-49
2022/04/15 08:56:52;;;;;;;6.93;6.10;;;15.00;61.30;;;;;;5044166;28;20124;-50
2022/04/15 08:59:21;;;;;;;10.05;6.60;;;15.10;61.10;;;;;;5065782;28;20044;-53
2022/04/15 09:01:50;;;;;;;9.20;6.65;;;15.10;60.80;;;;;;5051265;28;20075;-51
2022/04/15 09:04:20;;;;;;;6.00;4.90;;;15.20;60.30;;;;;;5059010;28;20596;-49
2022/04/15 09:06:59;;;;;;;6.30;5.70;;;15.20;59.70;;;;;;5057625;28;20040;-49
2022/04/15 09:09:30;;;;;;;6.68;4.88;;;15.30;59.60;;;;;;5067671;28;20553;-50
2022/04/15 09:12:04;;;;;;;6.53;4.95;;;15.30;59.20;;;;;;5058188;28;20055;-49
2022/04/15 09:14:37;;;;;;;7.07;5.10;;;15.40;59.30;;;;;;5067926;28;20068;-52
2022/04/15 09:17:05;;;;;;;5.25;4.78;;;15.40;59.10;;;;;;5073013;28;20033;-52
2022/04/15 09:19:36;;;;;;;7.57;6.18;;;15.50;59.20;;;;;;5071703;28;20041;-53
2022/04/15 09:22:03;;;;;;;8.90;7.05;;;15.50;58.70;;;;;;5068509;28;20048;-53
2022/04/15 09:24:34;;;;;;;6.93;5.75;;;15.60;58.60;;;;;;5069354;28;20415;-52
2022/04/15 09:27:05;;;;;;;7.10;5.45;;;15.70;58.40;;;;;;5072922;28;20036;-49
2022/04/15 09:29:34;;;;;;;7.53;5.43;;;15.70;58.20;;;;;;5073280;28;20036;-52
2022/04/15 09:32:14;;;;;;;9.10;6.20;;;15.80;57.90;;;;;;5067355;28;20103;-50
2022/04/15 09:35:04;;;;;;;7.47;6.25;;;15.80;57.10;;;;;;5064720;28;20043;-53
2022/04/15 09:37:34;;;;;;;7.32;5.78;;;15.90;57.30;;;;;;5071706;28;20090;-54
2022/04/15 09:40:27;;;;;;;9.10;6.47;;;15.90;57.50;;;;;;5052710;28;20045;-49
2022/04/15 09:42:58;;;;;;;8.02;5.63;;;16.00;57.30;;;;;;5064261;28;20403;-54
2022/04/15 09:45:27;;;;;;;;;;;16.10;57.70;;;;;;5072019;28;20135;-53
2022/04/15 09:47:57;;;;;;;6.53;4.93;;;16.10;57.60;;;;;;5071473;28;19920;-52
2022/04/15 09:50:37;;;;;;;5.63;4.55;;;16.30;57.20;;;;;;5071688;28;20044;-52
2022/04/15 09:53:20;;;;;;;6.30;4.35;;;16.30;57.30;;;;;;5067840;28;20119;-51
2022/04/15 09:55:50;;;;;;;5.05;4.55;;;16.40;56.60;;;;;;5063624;28;20069;-49
2022/04/15 09:58:32;;;;;;;4.75;4.15;;;16.40;56.30;;;;;;5071872;28;20090;-51
2022/04/15 10:01:02;;;;;;;6.35;4.60;;;16.40;56.30;;;;;;5064633;28;20037;-52
2022/04/15 10:03:37;;;;;;;5.53;4.15;;;16.40;56.20;;;;;;5072173;28;20044;-49
2022/04/15 10:06:10;;;;;;;5.10;4.55;;;16.40;56.00;;;;;;5070591;28;20048;-49
2022/04/15 10:09:02;;;;;;;4.63;4.18;;;16.50;56.30;;;;;;5065051;28;20455;-54
2022/04/15 10:11:35;;;;;;;6.60;4.50;;;16.60;56.30;;;;;;5072891;28;20447;-54
2022/04/15 10:14:04;;;;;;;4.97;4.03;;;16.60;56.00;;;;;;5043800;28;20083;-52
2022/04/15 10:16:32;;;;;;;4.95;3.80;;;16.70;56.00;;;;;;5032280;28;20051;-50
2022/04/15 10:19:02;;;;;;;3.90;2.95;;;16.80;55.20;;;;;;5057295;28;20044;-51
2022/04/15 10:21:36;;;;;;;4.25;3.80;;;16.90;55.30;;;;;;5061411;28;20047;-53
2022/04/15 10:24:03;;;;;;;4.10;3.70;;;16.90;54.70;;;;;;5048474;28;20119;-53
2022/04/15 10:26:35;;;;;;;5.38;3.55;;;17.10;55.20;;;;;;5061458;28;20121;-52
2022/04/15 10:29:04;;;;;;;3.88;3.50;;;17.10;54.80;;;;;;5056884;28;20561;-52
2022/04/15 10:31:40;;;;;;;3.83;3.45;;;17.10;55.20;;;;;;5062921;28;20060;-53
2022/04/15 10:34:12;;;;;;;5.70;3.25;;;17.20;54.20;;;;;;5055587;28;20051;-52
2022/04/15 10:36:44;;;;;;;5.38;3.72;;;17.30;54.50;;;;;;5056654;28;20070;-52
2022/04/15 10:39:12;;;;;;;4.73;3.43;;;17.40;54.00;;;;;;5055261;28;20040;-53
2022/04/15 10:41:42;;;;;;;3.80;3.15;;;17.40;54.40;;;;;;5053966;28;20040;-50
2022/04/15 10:44:33;;;;;;;4.63;3.45;;;17.40;54.20;;;;;;5056539;28;20550;-52
2022/04/15 10:47:19;;;;;;;4.22;3.83;;;17.40;53.40;;;;;;5061306;28;20044;-53
2022/04/15 10:49:54;;;;;;;3.28;2.97;;;17.40;53.50;;;;;;5052901;28;20044;-49
2022/04/15 10:52:24;;;;;;;3.83;3.05;;;17.40;53.60;;;;;;5055858;28;20032;-52
2022/04/15 10:54:54;;;;;;;4.45;4.00;;;17.50;53.90;;;;;;5057863;28;20051;-51
2022/04/15 10:57:30;;;;;;;5.15;4.18;;;17.50;53.90;;;;;;5056766;28;20099;-50
2022/04/15 11:02:51;;;;;;;3.70;3.08;;;17.60;53.80;;;;;;5066637;28;20503;-52
2022/04/15 11:05:41;;;;;;;4.20;3.80;;;17.60;53.60;;;;;;5036831;28;20052;-51
2022/04/15 11:08:15;;;;;;;3.60;3.30;;;17.70;52.80;;;;;;5050199;28;20063;-50
2022/04/15 11:11:03;;;;;;;5.93;3.47;;;17.70;53.80;;;;;;5055600;28;20554;-50
2022/04/15 11:13:51;;;;;;;3.85;3.55;;;17.80;53.30;;;;;;5058894;28;20041;-52
2022/04/15 11:16:21;;;;;;;4.15;3.30;;;17.90;53.50;;;;;;5036577;28;20525;-53
2022/04/15 11:18:56;;;;;;;3.72;3.30;;;18.00;53.50;;;;;;5064322;28;20045;-53
2022/04/15 11:21:27;;;;;;;4.30;3.90;;;18.10;53.30;;;;;;5053924;28;20048;-52
2022/04/15 11:24:00;;;;;;;4.53;3.72;;;18.10;52.60;;;;;;5064716;28;20076;-53
2022/04/15 11:26:28;;;;;;;4.20;3.53;;;18.20;52.00;;;;;;5052240;28;20040;-49
2022/04/15 11:29:00;;;;;;;4.95;3.63;;;18.30;51.90;;;;;;5061177;28;20046;-54
2022/04/15 11:31:31;;;;;;;3.97;3.47;;;18.20;52.00;;;;;;5056351;28;20071;-52
2022/04/15 11:34:11;;;;;;;4.53;3.42;;;18.20;51.80;;;;;;5059270;28;20043;-53
2022/04/15 11:36:39;;;;;;;4.00;3.58;;;18.20;51.10;;;;;;5052139;28;20462;-54
2022/04/15 11:39:09;;;;;;;4.22;3.35;;;18.20;51.90;;;;;;5053329;28;20447;-53
2022/04/15 11:41:46;;;;;;;4.55;3.65;;;18.10;51.60;;;;;;5055609;28;20495;-50
2022/04/15 11:44:15;;;;;;;4.35;3.70;;;18.20;52.70;;;;;;5054976;28;20648;-49
2022/04/15 11:46:52;;;;;;;4.70;4.00;;;18.20;52.30;;;;;;5065248;28;20668;-54
2022/04/15 11:49:28;;;;;;;4.55;4.05;;;18.20;51.90;;;;;;5055907;28;20076;-53
2022/04/15 11:51:59;;;;;;;4.70;3.55;;;18.20;51.50;;;;;;5060063;28;20048;-51
2022/04/15 11:54:34;;;;;;;4.43;4.03;;;18.10;51.80;;;;;;5054981;28;20756;-53
2022/04/15 11:57:05;;;;;;;5.43;4.45;;;18.10;51.60;;;;;;5059423;28;20073;-52
2022/04/15 11:59:42;;;;;;;4.05;3.65;;;18.10;51.90;;;;;;5050415;28;20036;-51
2022/04/15 12:02:12;;;;;;;8.95;4.07;;;18.10;51.90;;;;;;5051613;28;20048;-51
2022/04/15 12:04:56;;;;;;;4.30;3.90;;;18.10;52.30;;;;;;5055837;28;20589;-50
2022/04/15 12:07:24;;;;;;;4.43;4.03;;;18.10;51.80;;;;;;5064488;28;20083;-50
2022/04/15 12:09:52;;;;;;;4.47;4.07;;;18.10;52.40;;;;;;5046088;28;20404;-51
2022/04/15 12:12:20;;;;;;;4.22;3.83;;;18.20;52.20;;;;;;5048564;28;20755;-52
2022/04/15 12:14:53;;;;;;;4.40;4.00;;;18.20;52.00;;;;;;5055064;28;20029;-54
2022/04/15 12:17:21;;;;;;;4.75;3.67;;;18.30;51.80;;;;;;5064795;28;20082;-51
2022/04/15 12:19:48;;;;;;;4.07;3.13;;;18.40;52.00;;;;;;5054851;28;20064;-54
2022/04/15 12:22:16;;;;;;;5.32;3.65;;;18.40;51.80;;;;;;5052830;28;20044;-54
2022/04/15 12:24:43;;;;;;;5.07;4.05;;;18.50;51.30;;;;;;5048570;28;20041;-52
2022/04/15 12:27:18;;;;;;;4.30;3.20;;;18.50;51.40;;;;;;5059349;28;20037;-54
2022/04/15 12:29:47;;;;;;;4.20;3.40;;;18.50;51.60;;;;;;5046630;28;20090;-50
2022/04/15 12:32:17;;;;;;;4.30;3.03;;;18.60;51.40;;;;;;5060971;28;20072;-49
2022/04/15 12:34:45;;;;;;;4.55;3.35;;;18.60;51.50;;;;;;5053366;28;20075;-49
2022/04/15 12:37:34;;;;;;;2.97;2.70;;;18.70;51.20;;;;;;5058589;28;20033;-51
2022/04/15 12:40:06;;;;;;;4.28;2.92;;;18.70;51.00;;;;;;5053410;28;20107;-50
2022/04/15 12:42:34;;;;;;;3.85;2.90;;;18.80;51.20;;;;;;5071148;28;20032;-50
2022/04/15 12:45:03;;;;;;;2.95;2.75;;;18.90;51.00;;;;;;5056111;28;20127;-54
2022/04/15 12:47:30;;;;;;;4.43;2.97;;;18.90;51.00;;;;;;5067526;28;20047;-53
2022/04/15 12:50:20;;;;;;;3.20;2.72;;;18.90;50.70;;;;;;5057458;28;20072;-53
2022/04/15 12:52:48;;;;;;;4.05;3.40;;;19.00;50.10;;;;;;5092663;22;20041;-52
2022/04/15 12:55:35;;;;;;;4.00;3.08;;;19.20;50.10;;;;;;5023041;28;20050;-53
2022/04/15 12:58:22;;;;;;;2.70;2.50;;;19.00;50.50;;;;;;5048998;28;20037;-52
2022/04/15 13:00:51;;;;;;;2.72;2.50;;;19.00;50.30;;;;;;5032628;28;20077;-52